createdAt,value
2023-07-08T00:00:37.675Z,45.44
2023-07-08T00:01:39.967Z,45.60
2023-07-08T00:02:43.194Z,45.43
2023-07-08T00:03:46.409Z,45.29
2023-07-08T00:04:48.895Z,45.07
2023-07-08T00:05:55.624Z,45.30
2023-07-08T00:06:57.869Z,46.11
2023-07-08T00:08:00.195Z,45.79
2023-07-08T00:09:02.825Z,45.63
2023-07-08T00:10:23.821Z,45.66
2023-07-08T00:11:26.484Z,45.42
2023-07-08T00:12:28.895Z,45.81
2023-07-08T00:13:31.245Z,45.53
2023-07-08T00:14:33.872Z,45.69
2023-07-08T00:15:37.534Z,45.67
2023-07-08T00:16:39.798Z,46.26
2023-07-08T00:17:42.439Z,46.54
2023-07-08T00:18:44.948Z,46.90
2023-07-08T00:19:48.677Z,47.13
2023-07-08T00:20:51.805Z,46.90
2023-07-08T00:21:54.118Z,46.93
2023-07-08T00:22:56.655Z,47.01
2023-07-08T00:23:58.886Z,47.09
2023-07-08T00:25:01.313Z,46.90
2023-07-08T00:26:11.771Z,46.94
2023-07-08T00:27:14.495Z,47.18
2023-07-08T00:28:20.733Z,46.98
2023-07-08T00:29:35.686Z,47.37
2023-07-08T00:30:39.112Z,47.61
2023-07-08T00:31:41.547Z,47.58
2023-07-08T00:32:43.789Z,47.79
2023-07-08T00:33:46.019Z,47.59
2023-07-08T00:34:48.725Z,47.71
2023-07-08T00:35:51.017Z,47.12
2023-07-08T00:36:53.454Z,47.23
2023-07-08T00:38:02.470Z,47.13
2023-07-08T00:39:15.820Z,47.09
2023-07-08T00:40:20.662Z,47.72
2023-07-08T00:41:25.836Z,47.38
2023-07-08T00:42:28.392Z,47.13
2023-07-08T00:43:51.731Z,47.56
2023-07-08T00:44:56.728Z,47.58
2023-07-08T00:46:15.082Z,47.90
2023-07-08T00:47:19.406Z,47.77
2023-07-08T00:48:30.978Z,48.04
2023-07-08T00:49:58.671Z,48.02
2023-07-08T00:51:02.764Z,48.60
2023-07-08T00:52:31.964Z,48.39
2023-07-08T00:53:37.498Z,48.74
2023-07-08T00:54:40.007Z,48.52
2023-07-08T00:55:42.751Z,48.87
2023-07-08T00:56:58.500Z,48.46
2023-07-08T00:58:01.700Z,48.62
2023-07-08T00:59:13.053Z,48.39
2023-07-08T01:00:18.271Z,48.34
2023-07-08T01:01:22.932Z,48.35
2023-07-08T01:02:27.811Z,48.61
2023-07-08T01:03:31.892Z,49.58
2023-07-08T01:04:57.466Z,50.37
2023-07-08T01:06:03.459Z,51.08
2023-07-08T01:07:08.979Z,52.13
2023-07-08T01:08:12.074Z,52.15
2023-07-08T01:09:16.988Z,52.26
2023-07-08T01:10:27.185Z,52.52
2023-07-08T01:11:31.374Z,52.86
2023-07-08T01:12:41.769Z,52.99
2023-07-08T01:13:45.718Z,52.72
2023-07-08T01:14:50.009Z,52.75
2023-07-08T01:15:53.290Z,52.63
2023-07-08T01:16:55.893Z,52.10
2023-07-08T01:17:58.982Z,51.86
2023-07-08T01:19:04.056Z,52.58
2023-07-08T01:20:07.566Z,52.85
2023-07-08T01:21:40.291Z,53.37
2023-07-08T01:22:44.042Z,53.24
2023-07-08T01:23:46.648Z,53.62
2023-07-08T01:24:49.287Z,53.78
2023-07-08T01:25:52.068Z,53.90
2023-07-08T01:26:54.915Z,53.36
2023-07-08T01:27:58.844Z,53.57
2023-07-08T01:29:04.693Z,52.85
2023-07-08T01:30:08.021Z,53.52
2023-07-08T01:31:10.813Z,53.81
2023-07-08T01:32:19.640Z,54.21
2023-07-08T01:33:25.869Z,54.04
2023-07-08T01:34:28.298Z,53.64
2023-07-08T01:35:31.127Z,53.37
2023-07-08T01:36:43.534Z,52.95
2023-07-08T01:37:56.002Z,52.99
2023-07-08T01:38:58.629Z,52.87
2023-07-08T01:40:24.270Z,52.46
2023-07-08T01:41:26.641Z,53.03
2023-07-08T01:42:28.837Z,53.20
2023-07-08T01:43:31.094Z,53.19
2023-07-08T01:44:37.932Z,53.67
2023-07-08T01:45:42.974Z,54.00
2023-07-08T01:46:45.569Z,54.08
2023-07-08T01:47:54.069Z,54.37
2023-07-08T01:49:00.626Z,54.68
2023-07-08T01:50:03.399Z,54.25
2023-07-08T01:51:07.768Z,53.91
2023-07-08T01:52:12.844Z,53.03
2023-07-08T01:53:22.507Z,52.87
2023-07-08T01:54:24.816Z,52.74
2023-07-08T01:55:31.589Z,52.32
2023-07-08T01:56:34.372Z,52.26
2023-07-08T01:57:36.857Z,52.19
2023-07-08T01:58:39.380Z,52.11
2023-07-08T01:59:41.585Z,52.27
2023-07-08T02:00:44.740Z,53.21
2023-07-08T02:01:48.500Z,53.76
2023-07-08T02:02:52.803Z,54.39
2023-07-08T02:03:55.161Z,55.05
2023-07-08T02:04:57.551Z,54.94
2023-07-08T02:06:00.091Z,54.62
2023-07-08T02:07:03.149Z,54.24
2023-07-08T02:08:05.902Z,53.69
2023-07-08T02:09:08.282Z,53.49
2023-07-08T02:10:11.250Z,53.52
2023-07-08T02:11:17.848Z,53.17
2023-07-08T02:12:20.121Z,53.02
2023-07-08T02:13:24.102Z,52.90
2023-07-08T02:14:27.735Z,53.87
2023-07-08T02:15:30.477Z,54.55
2023-07-08T02:16:32.812Z,54.86
2023-07-08T02:17:35.051Z,54.37
2023-07-08T02:18:37.493Z,53.98
2023-07-08T02:19:40.113Z,53.28
2023-07-08T02:20:44.492Z,52.71
2023-07-08T02:21:46.731Z,52.98
2023-07-08T02:22:49.104Z,52.89
2023-07-08T02:23:53.232Z,53.59
2023-07-08T02:24:56.475Z,54.39
2023-07-08T02:25:58.967Z,55.53
2023-07-08T02:27:01.234Z,56.25
2023-07-08T02:28:04.026Z,56.34
2023-07-08T02:29:06.431Z,56.66
2023-07-08T02:30:10.115Z,56.53
2023-07-08T02:31:12.624Z,56.23
2023-07-08T02:32:14.978Z,56.61
2023-07-08T02:33:18.842Z,56.23
2023-07-08T02:34:21.297Z,56.27
2023-07-08T02:35:26.708Z,56.04
2023-07-08T02:36:29.184Z,55.85
2023-07-08T02:38:08.296Z,55.62
2023-07-08T02:39:11.485Z,55.72
2023-07-08T02:40:15.315Z,56.11
2023-07-08T02:41:17.911Z,56.43
2023-07-08T02:42:20.213Z,56.12
2023-07-08T02:43:22.637Z,56.20
2023-07-08T02:44:24.966Z,55.76
2023-07-08T02:45:27.201Z,55.67
2023-07-08T02:46:29.772Z,55.36
2023-07-08T02:47:32.060Z,55.67
2023-07-08T02:48:34.569Z,55.97
2023-07-08T02:49:36.868Z,56.64
2023-07-08T02:50:39.318Z,56.61
2023-07-08T02:51:41.730Z,56.92
2023-07-08T02:52:43.935Z,56.74
2023-07-08T02:53:46.439Z,56.26
2023-07-08T02:54:48.662Z,55.73
2023-07-08T02:55:51.121Z,55.56
2023-07-08T02:56:53.618Z,55.05
2023-07-08T02:57:55.845Z,55.53
2023-07-08T02:58:58.339Z,55.55
2023-07-08T03:00:00.670Z,56.07
2023-07-08T03:01:03.605Z,56.23
2023-07-08T03:02:07.213Z,56.26
2023-07-08T03:03:09.576Z,56.52
2023-07-08T03:04:15.352Z,56.10
2023-07-08T03:05:17.589Z,55.38
2023-07-08T03:06:20.045Z,55.56
2023-07-08T03:07:22.434Z,55.80
2023-07-08T03:08:24.741Z,55.71
2023-07-08T03:09:28.437Z,55.85
2023-07-08T03:10:30.663Z,55.58
2023-07-08T03:11:33.051Z,55.16
2023-07-08T03:12:35.507Z,55.19
2023-07-08T03:13:38.877Z,55.18
2023-07-08T03:14:41.767Z,54.85
2023-07-08T03:15:45.896Z,54.74
2023-07-08T03:16:48.306Z,55.44
2023-07-08T03:17:51.053Z,55.27
2023-07-08T03:18:53.319Z,54.86
2023-07-08T03:19:56.034Z,54.98
2023-07-08T03:20:59.441Z,54.70
2023-07-08T03:22:06.160Z,54.51
2023-07-08T03:23:08.364Z,54.72
2023-07-08T03:24:14.737Z,54.12
2023-07-08T03:25:20.864Z,53.91
2023-07-08T03:26:32.622Z,54.13
2023-07-08T03:27:36.719Z,54.07
2023-07-08T03:28:38.965Z,54.23
2023-07-08T03:29:42.481Z,54.31
2023-07-08T03:30:51.969Z,54.93
2023-07-08T03:31:57.729Z,54.51
2023-07-08T03:33:01.423Z,54.34
2023-07-08T03:34:03.805Z,54.74
2023-07-08T03:35:06.608Z,55.18
2023-07-08T03:36:23.730Z,55.37
2023-07-08T03:37:26.228Z,55.30
2023-07-08T03:38:28.462Z,55.90
2023-07-08T03:39:32.735Z,56.02
2023-07-08T03:40:35.204Z,55.98
2023-07-08T03:41:37.453Z,56.03
2023-07-08T03:42:39.908Z,55.87
2023-07-08T03:43:42.585Z,55.71
2023-07-08T03:44:44.929Z,56.58
2023-07-08T03:45:47.876Z,56.69
2023-07-08T03:46:52.206Z,56.98
2023-07-08T03:47:55.816Z,56.81
2023-07-08T03:48:58.119Z,56.57
2023-07-08T03:50:00.409Z,56.30
2023-07-08T03:51:02.931Z,55.64
2023-07-08T03:52:05.868Z,55.57
2023-07-08T03:53:10.440Z,55.39
2023-07-08T03:54:14.897Z,55.79
2023-07-08T03:55:17.391Z,55.87
2023-07-08T03:56:20.232Z,56.00
2023-07-08T03:57:22.465Z,55.85
2023-07-08T03:58:24.973Z,56.06
2023-07-08T03:59:27.372Z,56.27
2023-07-08T04:00:31.943Z,56.95
2023-07-08T04:01:36.989Z,57.71
2023-07-08T04:02:44.006Z,58.11
2023-07-08T04:03:55.984Z,57.71
2023-07-08T04:04:58.338Z,57.47
2023-07-08T04:06:00.547Z,56.96
2023-07-08T04:07:03.102Z,56.88
2023-07-08T04:08:06.162Z,56.37
2023-07-08T04:09:08.621Z,56.22
2023-07-08T04:10:11.359Z,56.17
2023-07-08T04:11:16.648Z,56.50
2023-07-08T04:12:19.191Z,56.57
2023-07-08T04:13:21.694Z,56.34
2023-07-08T04:14:24.002Z,56.30
2023-07-08T04:15:26.865Z,56.78
2023-07-08T04:17:01.771Z,56.87
2023-07-08T04:18:04.401Z,58.15
2023-07-08T04:19:14.451Z,58.53
2023-07-08T04:20:20.235Z,58.77
2023-07-08T04:21:24.041Z,58.30
2023-07-08T04:22:26.524Z,57.84
2023-07-08T04:23:28.750Z,57.27
2023-07-08T04:24:31.197Z,56.87
2023-07-08T04:25:33.484Z,56.71
2023-07-08T04:26:36.701Z,56.18
2023-07-08T04:27:40.363Z,55.69
2023-07-08T04:28:43.632Z,55.81
2023-07-08T04:29:46.214Z,56.07
2023-07-08T04:30:49.111Z,56.86
2023-07-08T04:31:51.785Z,57.11
2023-07-08T04:32:54.326Z,57.17
2023-07-08T04:33:57.294Z,56.92
2023-07-08T04:34:59.734Z,57.13
2023-07-08T04:36:02.580Z,56.76
2023-07-08T04:37:07.895Z,56.64
2023-07-08T04:38:25.312Z,56.61
2023-07-08T04:39:27.875Z,56.89
2023-07-08T04:40:30.223Z,57.14
2023-07-08T04:41:32.486Z,57.64
2023-07-08T04:42:36.817Z,57.16
2023-07-08T04:43:40.892Z,56.68
2023-07-08T04:44:43.693Z,56.17
2023-07-08T04:45:54.290Z,55.75
2023-07-08T04:46:57.589Z,55.80
2023-07-08T04:48:00.075Z,55.48
2023-07-08T04:49:04.269Z,55.37
2023-07-08T04:50:07.073Z,55.93
2023-07-08T04:51:09.510Z,56.35
2023-07-08T04:52:17.417Z,56.53
2023-07-08T04:53:19.779Z,56.62
2023-07-08T04:54:22.253Z,56.59
2023-07-08T04:55:24.765Z,57.02
2023-07-08T04:56:39.862Z,57.42
2023-07-08T04:57:42.486Z,57.62
2023-07-08T04:58:44.911Z,58.13
2023-07-08T04:59:47.389Z,58.00
2023-07-08T05:00:49.652Z,57.80
2023-07-08T05:01:53.547Z,57.35
2023-07-08T05:02:55.905Z,57.37
2023-07-08T05:03:58.464Z,57.29
2023-07-08T05:05:00.910Z,57.43
2023-07-08T05:06:03.137Z,57.20
2023-07-08T05:07:05.545Z,57.00
2023-07-08T05:08:08.494Z,56.89
2023-07-08T05:09:11.232Z,57.16
2023-07-08T05:10:13.979Z,56.89
2023-07-08T05:11:16.189Z,56.80
2023-07-08T05:12:18.658Z,56.81
2023-07-08T05:13:20.864Z,56.70
2023-07-08T05:14:23.277Z,56.60
2023-07-08T05:15:25.801Z,56.74
2023-07-08T05:16:28.086Z,56.97
2023-07-08T05:17:30.935Z,56.55
2023-07-08T05:18:33.383Z,55.98
2023-07-08T05:19:35.716Z,55.96
2023-07-08T05:20:38.264Z,55.67
2023-07-08T05:21:40.532Z,55.52
2023-07-08T05:22:44.165Z,55.20
2023-07-08T05:23:47.458Z,55.09
2023-07-08T05:24:49.662Z,55.31
2023-07-08T05:25:52.575Z,55.20
2023-07-08T05:26:54.792Z,54.59
2023-07-08T05:27:57.493Z,54.17
2023-07-08T05:29:00.056Z,54.61
2023-07-08T05:30:07.177Z,53.91
2023-07-08T05:31:09.867Z,53.73
2023-07-08T05:32:12.243Z,53.35
2023-07-08T05:33:14.516Z,52.75
2023-07-08T05:34:17.120Z,51.96
2023-07-08T05:35:19.583Z,51.11
2023-07-08T05:36:21.820Z,49.60
2023-07-08T05:37:26.355Z,48.68
2023-07-08T05:38:28.729Z,47.70
2023-07-08T05:39:32.459Z,45.94
2023-07-08T05:40:34.896Z,44.30
2023-07-08T05:41:37.292Z,43.57
2023-07-08T05:42:39.815Z,42.44
2023-07-08T05:43:42.016Z,41.86
2023-07-08T05:44:44.391Z,42.09
2023-07-08T05:45:54.901Z,42.29
2023-07-08T05:47:08.098Z,41.13
2023-07-08T05:48:10.484Z,40.06
2023-07-08T05:49:13.020Z,39.06
2023-07-08T05:50:15.318Z,40.34
2023-07-08T05:51:18.147Z,40.19
2023-07-08T05:52:20.683Z,40.08
2023-07-08T05:53:22.908Z,40.16
2023-07-08T05:54:25.879Z,39.59
2023-07-08T05:55:28.921Z,38.61
2023-07-08T05:56:31.804Z,39.26
2023-07-08T05:57:34.042Z,38.77
2023-07-08T05:58:36.577Z,38.90
2023-07-08T05:59:44.339Z,37.95
2023-07-08T06:00:47.176Z,37.28
2023-07-08T06:01:49.658Z,36.94
2023-07-08T06:02:52.039Z,37.43
2023-07-08T06:03:54.439Z,36.93
2023-07-08T06:04:56.707Z,37.05
2023-07-08T06:05:59.457Z,36.61
2023-07-08T06:07:02.028Z,35.97
2023-07-08T06:08:05.159Z,35.45
2023-07-08T06:09:07.549Z,35.00
2023-07-08T06:10:10.002Z,34.97
2023-07-08T06:11:12.586Z,35.42
2023-07-08T06:12:14.795Z,35.43
2023-07-08T06:13:17.215Z,35.92
2023-07-08T06:14:19.634Z,35.87
2023-07-08T06:15:21.969Z,35.38
2023-07-08T06:16:39.052Z,34.75
2023-07-08T06:17:43.069Z,34.08
2023-07-08T06:18:45.517Z,33.49
2023-07-08T06:19:47.755Z,33.22
2023-07-08T06:20:58.001Z,33.59
2023-07-08T06:22:19.568Z,32.94
2023-07-08T06:23:22.659Z,32.39
2023-07-08T06:24:25.220Z,32.61
2023-07-08T06:25:27.999Z,32.30
2023-07-08T06:26:30.202Z,32.26
2023-07-08T06:27:32.598Z,31.60
2023-07-08T06:28:34.870Z,31.34
2023-07-08T06:29:37.124Z,30.78
2023-07-08T06:30:39.563Z,30.16
2023-07-08T06:31:42.316Z,30.28
2023-07-08T06:32:44.758Z,30.25
2023-07-08T06:33:47.110Z,29.86
2023-07-08T06:34:49.448Z,29.46
2023-07-08T06:35:51.842Z,28.64
2023-07-08T06:36:54.241Z,28.91
2023-07-08T06:37:56.701Z,29.51
2023-07-08T06:38:58.985Z,28.38
2023-07-08T06:40:01.406Z,28.48
2023-07-08T06:41:03.644Z,28.81
2023-07-08T06:42:06.831Z,29.29
2023-07-08T06:43:09.806Z,28.44
2023-07-08T06:44:20.662Z,28.79
2023-07-08T06:45:23.327Z,28.97
2023-07-08T06:46:25.678Z,28.26
2023-07-08T06:47:28.121Z,28.35
2023-07-08T06:48:30.403Z,28.45
2023-07-08T06:49:32.607Z,27.84
2023-07-08T06:50:35.038Z,27.51
2023-07-08T06:51:37.379Z,27.24
2023-07-08T06:52:39.781Z,26.24
2023-07-08T06:53:42.195Z,26.09
2023-07-08T06:54:44.422Z,26.42
2023-07-08T06:55:46.754Z,26.23
2023-07-08T06:56:49.199Z,26.76
2023-07-08T06:57:51.565Z,26.45
2023-07-08T06:58:53.788Z,26.17
2023-07-08T06:59:56.186Z,25.51
2023-07-08T07:00:58.747Z,25.89
2023-07-08T07:02:01.341Z,25.62
2023-07-08T07:03:04.117Z,25.27
2023-07-08T07:04:06.491Z,26.12
2023-07-08T07:05:08.991Z,26.57
2023-07-08T07:06:11.183Z,25.63
2023-07-08T07:07:13.664Z,26.02
2023-07-08T07:08:16.160Z,26.71
2023-07-08T07:09:18.431Z,26.56
2023-07-08T07:10:21.468Z,26.81
2023-07-08T07:11:23.777Z,27.27
2023-07-08T07:12:27.149Z,27.33
2023-07-08T07:13:29.751Z,27.01
2023-07-08T07:15:37.126Z,26.22
2023-07-08T07:16:39.358Z,25.51
2023-07-08T07:17:41.850Z,24.93
2023-07-08T07:18:44.314Z,25.12
2023-07-08T07:19:46.541Z,25.00
2023-07-08T07:20:55.372Z,25.12
2023-07-08T07:21:57.589Z,24.81
2023-07-08T07:23:00.105Z,24.58
2023-07-08T07:24:02.574Z,24.38
2023-07-08T07:25:05.707Z,23.98
2023-07-08T07:26:08.652Z,23.74
2023-07-08T07:27:11.659Z,23.59
2023-07-08T07:28:15.400Z,23.45
2023-07-08T07:29:18.629Z,23.00
2023-07-08T07:30:21.021Z,22.89
2023-07-08T07:31:23.336Z,23.15
2023-07-08T07:32:25.677Z,22.98
2023-07-08T07:33:28.378Z,22.75
2023-07-08T07:34:30.773Z,23.74
2023-07-08T07:35:32.988Z,24.07
2023-07-08T07:36:35.376Z,23.51
2023-07-08T07:37:37.786Z,23.63
2023-07-08T07:38:40.471Z,22.98
2023-07-08T07:39:43.323Z,23.02
2023-07-08T07:40:46.716Z,23.15
2023-07-08T07:41:48.922Z,23.14
2023-07-08T07:42:51.169Z,22.98
2023-07-08T07:43:53.867Z,23.82
2023-07-08T07:44:56.091Z,23.92
2023-07-08T07:45:58.772Z,23.83
2023-07-08T07:47:01.345Z,23.75
2023-07-08T07:48:04.462Z,23.88
2023-07-08T07:49:07.083Z,24.05
2023-07-08T07:50:11.145Z,24.15
2023-07-08T07:51:13.595Z,23.46
2023-07-08T07:52:19.533Z,23.31
2023-07-08T07:53:21.790Z,23.15
2023-07-08T07:54:24.272Z,23.46
2023-07-08T07:55:26.918Z,24.54
2023-07-08T07:56:29.496Z,24.58
2023-07-08T07:57:31.716Z,23.97
2023-07-08T07:58:34.064Z,23.57
2023-07-08T07:59:36.589Z,23.10
2023-07-08T08:00:40.052Z,22.43
2023-07-08T08:01:43.608Z,22.50
2023-07-08T08:02:46.288Z,21.71
2023-07-08T08:03:52.013Z,22.06
2023-07-08T08:04:55.168Z,21.85
2023-07-08T08:05:57.574Z,21.17
2023-07-08T08:07:02.096Z,21.05
2023-07-08T08:08:05.036Z,21.67
2023-07-08T08:09:07.955Z,22.39
2023-07-08T08:10:10.847Z,22.87
2023-07-08T08:11:13.089Z,22.48
2023-07-08T08:12:15.483Z,22.18
2023-07-08T08:13:17.776Z,21.84
2023-07-08T08:14:20.456Z,21.57
2023-07-08T08:15:23.776Z,21.04
2023-07-08T08:16:26.157Z,20.92
2023-07-08T08:17:28.508Z,20.43
2023-07-08T08:18:31.516Z,19.75
2023-07-08T08:19:34.202Z,20.36
2023-07-08T08:20:36.497Z,19.78
2023-07-08T08:21:38.774Z,19.84
2023-07-08T08:22:41.186Z,20.23
2023-07-08T08:23:43.910Z,20.20
2023-07-08T08:24:46.339Z,20.15
2023-07-08T08:25:48.686Z,20.57
2023-07-08T08:26:51.053Z,21.60
2023-07-08T08:27:53.711Z,21.34
2023-07-08T08:28:56.843Z,21.32
2023-07-08T08:29:59.371Z,20.64
2023-07-08T08:31:01.725Z,21.81
2023-07-08T08:32:04.226Z,21.29
2023-07-08T08:33:06.756Z,20.84
2023-07-08T08:34:09.059Z,20.37
2023-07-08T08:35:11.441Z,20.19
2023-07-08T08:36:13.776Z,20.28
2023-07-08T08:37:15.954Z,20.21
2023-07-08T08:38:18.790Z,19.94
2023-07-08T08:39:20.984Z,20.96
2023-07-08T08:40:23.458Z,21.65
2023-07-08T08:41:36.660Z,21.55
2023-07-08T08:42:47.844Z,20.99
2023-07-08T08:43:52.776Z,21.76
2023-07-08T08:44:58.630Z,21.09
2023-07-08T08:46:17.541Z,21.27
2023-07-08T08:47:36.049Z,21.71
2023-07-08T08:49:06.175Z,21.50
2023-07-08T08:50:17.963Z,21.71
2023-07-08T08:51:20.704Z,21.35
2023-07-08T08:52:23.183Z,21.34
2023-07-08T08:53:25.659Z,20.97
2023-07-08T08:54:30.532Z,20.24
2023-07-08T08:55:33.241Z,20.14
2023-07-08T08:57:13.150Z,20.68
2023-07-08T08:58:41.207Z,21.61
2023-07-08T08:59:58.258Z,21.40
2023-07-08T09:01:08.038Z,20.48
2023-07-08T09:02:43.582Z,20.08
2023-07-08T09:03:53.560Z,20.27
2023-07-08T09:05:02.906Z,20.89
2023-07-08T09:06:12.899Z,21.10
2023-07-08T09:07:20.563Z,20.90
2023-07-08T09:08:32.735Z,20.55
2023-07-08T09:09:46.660Z,20.04
2023-07-08T09:11:06.177Z,19.78
2023-07-08T09:12:19.208Z,20.08
2023-07-08T09:13:36.778Z,20.50
2023-07-08T09:14:43.031Z,21.40
2023-07-08T09:15:45.499Z,21.07
2023-07-08T09:16:55.921Z,19.89
2023-07-08T09:18:13.182Z,19.40
2023-07-08T09:19:23.548Z,19.02
2023-07-08T09:20:29.846Z,18.59
2023-07-08T09:21:42.962Z,19.12
2023-07-08T09:22:59.685Z,19.57
2023-07-08T09:24:08.684Z,19.43
2023-07-08T09:25:16.775Z,18.82
2023-07-08T09:26:23.848Z,18.94
2023-07-08T09:27:26.025Z,18.10
2023-07-08T09:28:45.701Z,17.41
2023-07-08T09:29:49.180Z,17.93
2023-07-08T09:30:55.642Z,17.61
2023-07-08T09:31:59.499Z,17.19
2023-07-08T09:33:07.720Z,17.51
2023-07-08T09:34:18.978Z,17.77
2023-07-08T09:35:29.349Z,17.58
2023-07-08T09:36:31.669Z,17.90
2023-07-08T09:37:36.583Z,18.32
2023-07-08T09:38:40.684Z,18.57
2023-07-08T09:39:42.898Z,18.81
2023-07-08T09:40:50.734Z,18.44
2023-07-08T09:41:54.258Z,18.55
2023-07-08T09:43:02.538Z,18.25
2023-07-08T09:44:06.244Z,18.59
2023-07-08T09:45:19.540Z,18.46
2023-07-08T09:46:23.859Z,18.76
2023-07-08T09:47:35.306Z,18.77
2023-07-08T09:48:38.446Z,18.98
2023-07-08T09:49:40.734Z,18.50
2023-07-08T09:50:45.441Z,19.22
2023-07-08T09:51:48.293Z,19.55
2023-07-08T09:52:53.117Z,19.30
2023-07-08T09:53:55.597Z,18.99
2023-07-08T09:54:57.818Z,18.89
2023-07-08T09:56:03.692Z,19.22
2023-07-08T09:57:32.169Z,18.54
2023-07-08T09:58:39.047Z,17.95
2023-07-08T09:59:48.905Z,18.18
2023-07-08T10:00:59.271Z,17.83
2023-07-08T10:02:39.504Z,17.61
2023-07-08T10:03:43.291Z,18.06
2023-07-08T10:04:45.974Z,18.21
2023-07-08T10:05:50.008Z,18.47
2023-07-08T10:06:55.653Z,18.49
2023-07-08T10:07:59.143Z,18.86
2023-07-08T10:09:04.569Z,18.81
2023-07-08T10:10:15.766Z,19.09
2023-07-08T10:11:18.138Z,19.63
2023-07-08T10:12:21.894Z,19.74
2023-07-08T10:13:35.019Z,20.03
2023-07-08T10:14:46.190Z,19.77
2023-07-08T10:15:57.727Z,19.58
2023-07-08T10:17:00.445Z,19.60
2023-07-08T10:18:02.914Z,20.06
2023-07-08T10:19:18.263Z,19.95
2023-07-08T10:20:22.298Z,20.12
2023-07-08T10:21:53.869Z,20.20
2023-07-08T10:23:06.662Z,20.18
2023-07-08T10:24:14.668Z,20.46
2023-07-08T10:25:33.032Z,20.38
2023-07-08T10:26:36.932Z,20.36
2023-07-08T10:27:48.664Z,20.55
2023-07-08T10:28:50.833Z,20.30
2023-07-08T10:30:24.237Z,20.09
2023-07-08T10:31:34.762Z,20.51
2023-07-08T10:32:42.939Z,20.02
2023-07-08T10:34:22.005Z,20.14
2023-07-08T10:35:39.679Z,20.18
2023-07-08T10:36:42.078Z,20.41
2023-07-08T10:37:58.091Z,20.61
2023-07-08T10:39:32.653Z,20.35
2023-07-08T10:40:54.312Z,20.45
2023-07-08T10:42:35.520Z,20.70
2023-07-08T10:44:05.870Z,20.96
2023-07-08T10:45:08.203Z,20.59
2023-07-08T10:46:10.663Z,20.71
2023-07-08T10:47:41.228Z,21.15
2023-07-08T10:48:49.621Z,21.12
2023-07-08T10:50:08.747Z,21.47
2023-07-08T10:51:26.266Z,21.73
2023-07-08T10:53:03.930Z,21.73
2023-07-08T10:54:43.279Z,21.65
2023-07-08T10:55:53.994Z,21.39
2023-07-08T10:57:11.073Z,21.48
2023-07-08T10:58:16.800Z,20.93
2023-07-08T10:59:41.049Z,21.07
2023-07-08T11:01:18.218Z,21.00
2023-07-08T11:02:51.608Z,20.95
2023-07-08T11:04:02.909Z,20.54
2023-07-08T11:05:23.932Z,20.61
2023-07-08T11:07:01.619Z,20.67
2023-07-08T11:08:22.295Z,20.47
2023-07-08T11:09:28.798Z,20.34
2023-07-08T11:10:37.704Z,20.50
2023-07-08T11:11:56.779Z,20.91
2023-07-08T11:13:07.267Z,20.71
2023-07-08T11:14:21.009Z,20.42
2023-07-08T11:15:31.996Z,20.52
2023-07-08T11:16:42.460Z,20.51
2023-07-08T11:17:51.488Z,20.64
2023-07-08T11:19:14.137Z,20.86
2023-07-08T11:20:38.191Z,20.80
2023-07-08T11:22:01.400Z,20.96
2023-07-08T11:23:27.829Z,21.58
2023-07-08T11:24:56.074Z,20.98
2023-07-08T11:26:27.984Z,21.33
2023-07-08T11:27:37.509Z,20.84
2023-07-08T11:28:39.941Z,21.19
2023-07-08T11:29:49.313Z,20.64
2023-07-08T11:30:53.066Z,21.05
2023-07-08T11:31:56.487Z,20.95
2023-07-08T11:33:04.779Z,20.75
2023-07-08T11:34:09.652Z,20.66
2023-07-08T11:35:34.263Z,20.47
2023-07-08T11:36:37.279Z,20.46
2023-07-08T11:37:40.799Z,20.52
2023-07-08T11:38:50.316Z,20.86
2023-07-08T11:40:20.250Z,20.87
2023-07-08T11:41:29.982Z,20.70
2023-07-08T11:42:46.043Z,20.92
2023-07-08T11:44:00.113Z,20.15
2023-07-08T11:45:07.997Z,19.48
2023-07-08T11:46:19.158Z,19.51
2023-07-08T11:47:41.936Z,19.15
2023-07-08T11:48:48.347Z,19.16
2023-07-08T11:49:52.681Z,19.69
2023-07-08T11:50:55.851Z,20.09
2023-07-08T11:51:59.749Z,19.69
2023-07-08T11:53:07.350Z,19.65
2023-07-08T11:54:31.595Z,19.96
2023-07-08T11:55:43.586Z,19.22
2023-07-08T11:56:59.621Z,19.16
2023-07-08T11:58:01.935Z,19.55
2023-07-08T11:59:19.866Z,19.84
2023-07-08T12:00:25.806Z,19.52
2023-07-08T12:01:33.842Z,19.91
2023-07-08T12:02:54.235Z,19.49
2023-07-08T12:04:21.234Z,19.65
2023-07-08T12:05:38.104Z,20.01
2023-07-08T12:06:40.479Z,19.66
2023-07-08T12:07:47.182Z,19.61
2023-07-08T12:08:50.720Z,19.28
2023-07-08T12:10:14.919Z,19.26
2023-07-08T12:11:17.341Z,19.70
2023-07-08T12:12:26.135Z,18.96
2023-07-08T12:13:30.708Z,18.92
2023-07-08T12:14:33.803Z,18.92
2023-07-08T12:15:36.175Z,18.89
2023-07-08T12:16:38.718Z,19.38
2023-07-08T12:17:42.989Z,19.29
2023-07-08T12:18:47.372Z,19.66
2023-07-08T12:19:51.929Z,19.65
2023-07-08T12:21:00.308Z,19.20
2023-07-08T12:22:03.373Z,19.36
2023-07-08T12:23:22.849Z,19.00
2023-07-08T12:24:28.053Z,18.69
2023-07-08T12:25:37.456Z,18.66
2023-07-08T12:26:40.794Z,18.71
2023-07-08T12:27:44.764Z,18.34
2023-07-08T12:28:47.140Z,18.46
2023-07-08T12:29:50.311Z,18.72
2023-07-08T12:30:53.861Z,18.62
2023-07-08T12:31:59.214Z,18.93
2023-07-08T12:33:02.766Z,18.64
2023-07-08T12:34:09.419Z,18.45
2023-07-08T12:35:32.680Z,18.68
2023-07-08T12:36:35.057Z,19.00
2023-07-08T12:37:37.286Z,19.24
2023-07-08T12:38:48.298Z,19.65
2023-07-08T12:40:01.259Z,19.70
2023-07-08T12:41:11.818Z,19.96
2023-07-08T12:42:15.686Z,20.26
2023-07-08T12:43:19.216Z,20.03
2023-07-08T12:44:24.968Z,19.52
2023-07-08T12:45:28.653Z,19.65
2023-07-08T12:46:31.469Z,19.58
2023-07-08T12:47:34.171Z,19.21
2023-07-08T12:48:40.781Z,19.04
2023-07-08T12:49:43.016Z,18.96
2023-07-08T12:50:45.240Z,18.86
2023-07-08T12:51:48.461Z,18.70
2023-07-08T12:52:51.180Z,18.55
2023-07-08T12:53:54.873Z,18.43
2023-07-08T12:54:57.166Z,18.52
2023-07-08T12:56:00.500Z,18.20
2023-07-08T12:57:03.697Z,18.34
2023-07-08T12:58:06.515Z,18.48
2023-07-08T12:59:09.647Z,18.56
2023-07-08T13:00:17.592Z,18.05
2023-07-08T13:01:23.049Z,17.65
2023-07-08T13:02:32.001Z,17.78
2023-07-08T13:03:42.344Z,18.06
2023-07-08T13:04:47.699Z,18.20
2023-07-08T13:05:52.032Z,18.29
2023-07-08T13:06:55.877Z,18.41
2023-07-08T13:07:59.567Z,18.50
2023-07-08T13:09:20.411Z,18.17
2023-07-08T13:10:25.714Z,18.33
2023-07-08T13:11:28.015Z,18.24
2023-07-08T13:12:33.365Z,18.29
2023-07-08T13:13:48.223Z,18.05
2023-07-08T13:14:51.574Z,18.11
2023-07-08T13:15:54.107Z,18.08
2023-07-08T13:16:56.546Z,17.91
2023-07-08T13:17:59.106Z,18.23
2023-07-08T13:19:02.220Z,17.86
2023-07-08T13:20:05.536Z,18.32
2023-07-08T13:21:11.306Z,18.01
2023-07-08T13:22:17.539Z,18.27
2023-07-08T13:23:21.328Z,18.10
2023-07-08T13:24:23.683Z,18.30
2023-07-08T13:25:33.661Z,18.32
2023-07-08T13:26:36.908Z,18.21
2023-07-08T13:27:39.129Z,18.14
2023-07-08T13:28:41.827Z,18.18
2023-07-08T13:29:44.224Z,18.31
2023-07-08T13:31:03.407Z,18.23
2023-07-08T13:32:07.822Z,18.14
2023-07-08T13:33:18.485Z,18.27
2023-07-08T13:34:24.351Z,18.09
2023-07-08T13:35:44.817Z,18.18
2023-07-08T13:36:51.341Z,18.26
2023-07-08T13:37:54.772Z,18.02
2023-07-08T13:38:57.442Z,18.41
2023-07-08T13:40:00.078Z,18.83
2023-07-08T13:41:04.975Z,19.46
2023-07-08T13:42:09.069Z,19.60
2023-07-08T13:43:11.256Z,19.20
2023-07-08T13:44:13.726Z,19.33
2023-07-08T13:45:34.816Z,19.14
2023-07-08T13:46:38.630Z,19.09
2023-07-08T13:47:41.275Z,19.20
2023-07-08T13:48:44.368Z,19.17
2023-07-08T13:49:50.092Z,18.88
2023-07-08T13:51:23.300Z,18.66
2023-07-08T13:52:25.542Z,18.81
2023-07-08T13:53:43.818Z,18.61
2023-07-08T13:54:54.180Z,18.68
2023-07-08T13:56:03.014Z,18.27
2023-07-08T13:57:11.769Z,18.53
2023-07-08T13:58:17.524Z,19.07
2023-07-08T13:59:23.801Z,18.80
2023-07-08T14:00:26.304Z,18.50
2023-07-08T14:01:31.064Z,18.59
2023-07-08T14:02:34.983Z,18.42
2023-07-08T14:03:37.287Z,18.38
2023-07-08T14:04:39.718Z,18.65
2023-07-08T14:05:42.242Z,18.68
2023-07-08T14:06:44.535Z,18.89
2023-07-08T14:07:50.672Z,19.00
2023-07-08T14:08:56.348Z,18.89
2023-07-08T14:09:58.858Z,19.04
2023-07-08T14:11:01.573Z,18.83
2023-07-08T14:12:04.313Z,18.79
2023-07-08T14:13:07.074Z,18.86
2023-07-08T14:14:10.304Z,18.70